Time;durP1;ratioP1;P1;durP2;ratioP2;P2;SDS_P1;SDS_P2;PMS_P1;PMS_P2;Temp;Humidity;BMP_temperature;BMP_pressure;BME280_temperature;BME280_humidity;BME280_pressure;Samples;Min_cycle;Max_cycle;Signal;HPM_P1;HPM_P2
2022/01/14 00:00:05;;;;;;;196.15;155.65;;;;;;;14.49;28.68;95376.56;4966372;28;20616;-66
2022/01/14 00:02:51;;;;;;;198.88;158.77;;;;;;;14.47;28.78;95370.06;4962783;28;20162;-66
2022/01/14 00:05:16;;;;;;;199.30;155.52;;;;;;;14.49;28.81;95378.50;4965736;28;20050;-66
2022/01/14 00:07:42;;;;;;;193.25;154.32;;;;;;;14.49;28.82;95391.97;4962815;28;20053;-66
2022/01/14 00:10:08;;;;;;;195.60;156.73;;;;;;;14.47;28.68;95378.91;4987524;28;20066;-66
2022/01/14 00:12:39;;;;;;;194.70;155.50;;;;;;;14.46;28.90;95385.44;4966624;28;22209;-66
2022/01/14 00:15:24;;;;;;;190.20;151.90;;;;;;;14.45;28.57;95375.84;4966130;28;20070;-66
2022/01/14 00:17:53;;;;;;;196.40;155.57;;;;;;;14.46;28.81;95384.69;4968327;28;20557;-66
2022/01/14 00:20:22;;;;;;;199.43;159.63;;;;;;;14.45;28.76;95383.91;4963306;28;20051;-66
2022/01/14 00:22:48;;;;;;;191.27;152.50;;;;;;;14.44;28.75;95381.63;4964364;28;20619;-66
2022/01/14 00:33:30;;;;;;;194.80;154.65;;;;;;;14.44;28.54;95382.38;4967505;28;20066;-66
2022/01/14 00:35:55;;;;;;;198.35;155.52;;;;;;;14.44;28.91;95378.94;4966417;28;20055;-66
2022/01/14 00:38:21;;;;;;;198.60;157.48;;;;;;;14.43;28.80;95377.41;4962542;28;20043;-66
2022/01/14 00:40:47;;;;;;;192.63;153.15;;;;;;;14.41;28.90;95377.78;4965130;28;20055;-66
2022/01/14 00:43:12;;;;;;;198.20;157.27;;;;;;;14.43;28.88;95377.41;4967326;28;20143;-66
2022/01/14 00:45:39;;;;;;;195.93;155.15;;;;;;;14.42;28.76;95375.88;4966886;28;20131;-66
2022/01/14 00:48:05;;;;;;;194.10;154.45;;;;;;;14.41;28.88;95380.47;4964377;28;20047;-66
2022/01/14 00:50:33;;;;;;;195.70;156.60;;;;;;;14.41;29.02;95371.63;4969562;28;20509;-66
2022/01/14 00:52:59;;;;;;;198.23;158.30;;;;;;;14.42;28.94;95378.56;4966896;28;20058;-66
2022/01/14 00:55:39;;;;;;;213.90;170.27;;;;;;;14.40;28.94;95365.47;4963668;28;20050;-66
2022/01/14 01:00:49;;;;;;;200.25;155.90;;;;;;;14.40;28.70;95367.41;4967135;28;20438;-66
2022/01/14 01:03:15;;;;;;;200.25;158.50;;;;;;;14.40;28.94;95370.84;4966535;28;20126;-66
2022/01/14 01:05:40;;;;;;;200.82;160.20;;;;;;;14.37;28.99;95358.19;4961942;28;20038;-66
2022/01/14 01:08:10;;;;;;;187.02;147.98;;;;;;;14.38;28.86;95370.47;4969254;28;20062;-66
2022/01/14 01:10:45;;;;;;;200.52;158.82;;;;;;;14.39;28.98;95376.63;4965394;28;20054;-66
2022/01/14 01:13:22;;;;;;;196.00;155.70;;;;;;;14.35;28.76;95368.59;4965160;28;20054;-66
2022/01/14 01:15:49;;;;;;;190.18;149.10;;;;;;;14.37;28.80;95366.25;4965067;28;20428;-66
2022/01/14 01:18:16;;;;;;;194.82;155.20;;;;;;;14.37;28.98;95360.13;4966205;28;20146;-66
2022/01/14 01:20:42;;;;;;;192.50;154.60;;;;;;;14.36;29.09;95359.34;4964356;28;20062;-66
2022/01/14 01:23:07;;;;;;;194.02;155.40;;;;;;;14.37;28.97;95365.50;4965466;28;20540;-66
2022/01/14 01:25:40;;;;;;;198.75;157.98;;;;;;;14.37;29.10;95362.81;4966781;28;20400;-66
2022/01/14 01:28:05;;;;;;;194.05;153.30;;;;;;;14.37;28.82;95360.88;4966845;28;20443;-66
2022/01/14 01:32:58;;;;;;;196.82;156.13;;;;;;;14.35;28.86;95357.81;4966450;28;20487;-66
2022/01/14 01:35:24;;;;;;;210.80;167.10;;;;;;;14.36;28.78;95347.81;4966166;28;20511;-66
2022/01/14 01:37:50;;;;;;;198.60;157.43;;;;;;;14.36;28.99;95351.28;4968146;28;20124;-66
2022/01/14 01:40:15;;;;;;;195.80;156.38;;;;;;;14.35;28.67;95352.44;4963901;28;20113;-66
2022/01/14 01:42:43;;;;;;;200.32;158.38;;;;;;;14.35;28.98;95346.28;4964471;28;20054;-66
2022/01/14 01:45:11;;;;;;;194.50;153.93;;;;;;;14.34;28.95;95342.06;4968609;28;20530;-66
2022/01/14 01:47:38;;;;;;;200.32;157.80;;;;;;;14.34;29.17;95329.38;4963155;28;20043;-66
2022/01/14 01:50:18;;;;;;;198.50;158.45;;;;;;;14.34;29.04;95323.22;4956351;28;20054;-66
2022/01/14 01:52:44;;;;;;;195.35;153.05;;;;;;;14.33;28.86;95327.09;4958238;28;20523;-66
2022/01/14 01:55:11;;;;;;;201.40;159.32;;;;;;;14.33;29.00;95330.53;4965274;28;20049;-66
2022/01/14 01:57:37;;;;;;;197.52;156.02;;;;;;;14.33;29.00;95327.84;4963318;28;20050;-66
2022/01/14 02:00:07;;;;;;;189.52;151.05;;;;;;;14.32;29.09;95326.31;4965127;28;20061;-66
2022/01/14 02:02:36;;;;;;;200.63;159.45;;;;;;;14.33;29.25;95324.41;4963362;28;20046;-66
2022/01/14 02:05:03;;;;;;;190.93;150.40;;;;;;;14.31;28.81;95321.34;4963464;28;20046;-66
2022/01/14 02:07:31;;;;;;;195.93;154.00;;;;;;;14.31;29.01;95311.34;4969893;28;20143;-65
2022/01/14 02:09:57;;;;;;;194.27;153.07;;;;;;;14.31;29.36;95313.25;4963563;28;20051;-65
2022/01/14 02:12:23;;;;;;;191.38;150.70;;;;;;;14.31;28.92;95313.25;4963647;28;20104;-66
2022/01/14 02:17:31;;;;;;;196.45;154.82;;;;;;;14.31;29.19;95300.56;4965703;28;20059;-65
2022/01/14 02:22:50;;;;;;;189.88;150.05;;;;;;;14.30;29.22;95290.22;4962038;28;20054;-66
2022/01/14 02:25:28;;;;;;;198.20;155.45;;;;;;;14.32;29.07;95293.25;4965211;28;20058;-66
2022/01/14 02:27:57;;;;;;;192.80;153.30;;;;;;;14.31;29.08;95294.44;4963412;28;20502;-66
2022/01/14 02:30:24;;;;;;;188.18;149.35;;;;;;;14.29;29.16;95281.41;4965083;28;20054;-66
2022/01/14 02:32:50;;;;;;;192.57;152.23;;;;;;;14.29;29.42;95286.00;4962918;28;20051;-66
2022/01/14 02:35:16;;;;;;;197.80;155.73;;;;;;;14.29;29.15;95280.63;4965536;28;20058;-66
2022/01/14 02:37:42;;;;;;;193.30;153.27;;;;;;;14.29;29.21;95273.31;4963840;28;20125;-66
2022/01/14 02:40:09;;;;;;;194.52;151.90;;;;;;;14.30;29.06;95271.41;4962349;28;20720;-66
2022/01/14 02:42:34;;;;;;;194.50;153.93;;;;;;;14.29;29.32;95264.50;4965743;28;20541;-66
2022/01/14 02:45:04;;;;;;;193.98;153.15;;;;;;;14.28;29.09;95260.28;4969241;28;20039;-66
2022/01/14 02:47:30;;;;;;;191.27;151.23;;;;;;;14.28;29.19;95254.88;4963530;28;20051;-66
2022/01/14 02:49:55;;;;;;;192.75;150.95;;;;;;;14.28;29.28;95252.19;4961348;28;20062;-66
2022/01/14 02:55:19;;;;;;;192.45;152.40;;;;;;;14.27;29.00;95262.19;4967104;28;20054;-66
2022/01/14 02:57:46;;;;;;;191.90;150.20;;;;;;;14.29;29.16;95269.88;4967415;28;20061;-66
2022/01/14 03:00:14;;;;;;;194.50;154.18;;;;;;;14.29;29.23;95270.63;4966578;28;20092;-66
2022/01/14 03:02:45;;;;;;;192.43;152.23;;;;;;;14.29;29.10;95276.03;4967243;28;20578;-65
2022/01/14 03:05:12;;;;;;;195.93;152.32;;;;;;;14.30;29.34;95279.47;4968688;28;20070;-66
2022/01/14 03:07:39;;;;;;;193.23;153.43;;;;;;;14.30;29.08;95282.91;4966837;28;20043;-66
2022/01/14 03:10:06;;;;;;;191.98;151.80;;;;;;;14.29;29.07;95276.03;4964460;28;20081;-66
2022/01/14 03:12:32;;;;;;;193.73;153.70;;;;;;;14.29;29.39;95276.03;4966748;28;20042;-66
2022/01/14 03:14:58;;;;;;;189.48;150.80;;;;;;;14.28;29.22;95266.41;4968619;28;20434;-66
2022/01/14 03:17:23;;;;;;;205.25;161.20;;;;;;;14.28;29.19;95265.66;4962675;28;20046;-66
2022/01/14 03:19:49;;;;;;;192.20;150.98;;;;;;;14.28;29.41;95269.09;4967154;28;20090;-66
2022/01/14 03:22:21;;;;;;;192.77;152.43;;;;;;;14.29;29.09;95264.50;4967963;28;21232;-66
2022/01/14 03:27:12;;;;;;;188.13;150.02;;;;;;;14.28;29.63;95261.03;4969886;28;20264;-66
2022/01/14 03:29:38;;;;;;;187.05;148.40;;;;;;;14.29;29.32;95264.50;4966399;28;20073;-66
2022/01/14 03:32:04;;;;;;;191.68;150.95;;;;;;;14.28;29.21;95266.41;4971759;28;20054;-66
2022/01/14 03:34:31;;;;;;;192.50;152.55;;;;;;;14.29;29.10;95265.25;4964258;28;20075;-66
2022/01/14 03:36:56;;;;;;;191.05;150.32;;;;;;;14.28;29.26;95258.34;4962745;28;20185;-66
2022/01/14 03:39:22;;;;;;;192.60;152.63;;;;;;;14.29;29.00;95259.09;4969279;28;20039;-66
2022/01/14 03:41:48;;;;;;;192.55;152.63;;;;;;;14.28;29.06;95257.59;4970130;28;20065;-66
2022/01/14 03:44:13;;;;;;;192.23;152.10;;;;;;;14.28;29.26;95262.97;4967397;28;20452;-65
2022/01/14 03:46:39;;;;;;;193.35;152.73;;;;;;;14.28;29.32;95269.09;4965364;28;20058;-66
2022/01/14 03:49:04;;;;;;;193.27;152.63;;;;;;;14.25;29.11;95253.75;4964820;28;20058;-66
2022/01/14 03:51:30;;;;;;;189.77;151.32;;;;;;;14.28;29.29;95260.28;4968194;28;20054;-66
2022/01/14 03:53:56;;;;;;;194.65;154.73;;;;;;;14.27;29.28;95261.44;4968002;28;20556;-66
2022/01/14 03:56:23;;;;;;;192.23;152.57;;;;;;;14.27;29.21;95256.81;4966545;28;20534;-66
2022/01/14 03:58:49;;;;;;;196.90;155.77;;;;;;;14.27;29.14;95261.44;4965385;28;20073;-66
2022/01/14 04:01:15;;;;;;;195.02;154.70;;;;;;;14.26;29.24;95259.91;4965261;28;20061;-66
2022/01/14 04:03:42;;;;;;;192.85;152.75;;;;;;;14.25;29.11;95253.75;4967007;28;20061;-66
2022/01/14 04:06:10;;;;;;;191.13;151.18;;;;;;;14.26;29.23;95259.91;4967924;28;20212;-66
2022/01/14 04:08:36;;;;;;;195.57;153.80;;;;;;;14.26;29.31;95249.16;4967801;28;20499;-65
2022/01/14 04:11:03;;;;;;;190.98;152.27;;;;;;;14.26;29.13;95243.75;4968538;28;20054;-66
2022/01/14 04:13:43;;;;;;;190.70;149.93;;;;;;;14.26;29.18;95243.75;4968336;28;21378;-66
2022/01/14 04:16:08;;;;;;;191.73;150.13;;;;;;;14.26;29.13;95244.53;4963032;28;20426;-67
2022/01/14 04:18:34;;;;;;;191.65;152.52;;;;;;;14.25;29.16;95240.31;4965639;28;20042;-66
2022/01/14 04:20:59;;;;;;;193.02;152.48;;;;;;;14.25;29.23;95237.63;4965267;28;20055;-66
2022/01/14 04:23:25;;;;;;;193.70;153.45;;;;;;;14.24;29.28;95238.00;4964264;28;20070;-66
2022/01/14 04:25:53;;;;;;;197.55;157.70;;;;;;;14.25;29.16;95234.94;4966325;28;20050;-66
2022/01/14 04:28:23;;;;;;;195.90;154.00;;;;;;;14.23;29.16;95229.19;4966511;28;20676;-66
2022/01/14 04:30:54;;;;;;;198.18;156.48;;;;;;;14.24;29.36;95232.63;4967808;28;20181;-66
2022/01/14 04:33:25;;;;;;;189.23;149.93;;;;;;;14.23;29.24;95233.78;4970388;28;20057;-66
2022/01/14 04:35:51;;;;;;;198.05;156.25;;;;;;;14.20;29.29;95229.97;4964520;28;20063;-66
2022/01/14 04:38:17;;;;;;;193.80;153.45;;;;;;;14.23;29.15;95231.09;4972360;28;20039;-66
2022/01/14 04:40:43;;;;;;;189.50;149.60;;;;;;;14.22;29.26;95230.34;4963681;28;20082;-66
2022/01/14 04:43:09;;;;;;;192.20;153.63;;;;;;;14.22;29.46;95234.97;4965733;28;20057;-66
2022/01/14 04:48:01;;;;;;;190.07;150.57;;;;;;;14.23;29.29;95231.09;4964064;28;20829;-66
2022/01/14 04:50:26;;;;;;;189.52;151.43;;;;;;;14.21;29.35;95226.13;4971362;28;20046;-66
2022/01/14 04:52:52;;;;;;;194.25;153.52;;;;;;;14.22;29.10;95222.28;4970004;28;20069;-66
2022/01/14 04:55:21;;;;;;;200.85;158.27;;;;;;;14.22;29.13;95216.88;4968862;28;20058;-65
2022/01/14 04:57:46;;;;;;;194.35;152.65;;;;;;;14.23;28.94;95214.97;4966673;28;20038;-65
2022/01/14 05:00:18;;;;;;;190.82;150.85;;;;;;;14.23;29.03;95221.09;4966503;28;20062;-66
2022/01/14 05:02:43;;;;;;;193.45;151.07;;;;;;;14.23;29.19;95214.97;4967721;28;20137;-66
2022/01/14 05:05:10;;;;;;;199.27;157.80;;;;;;;14.23;29.18;95204.97;4964187;28;20116;-66
2022/01/14 05:07:36;;;;;;;199.95;158.00;;;;;;;14.23;29.15;95215.72;4962679;28;20043;-66
2022/01/14 05:12:38;;;;;;;191.80;151.68;;;;;;;14.24;29.11;95213.78;4965046;28;20386;-66
2022/01/14 05:15:04;;;;;;;198.20;156.07;;;;;;;14.24;29.15;95205.72;4964652;28;20153;-66
2022/01/14 05:17:30;;;;;;;193.27;152.82;;;;;;;14.24;29.31;95205.72;4964251;28;20061;-65
2022/01/14 05:19:58;;;;;;;187.93;148.13;;;;;;;14.25;29.25;95208.03;4966251;28;20057;-66
2022/01/14 05:22:24;;;;;;;195.73;154.40;;;;;;;14.25;29.30;95205.31;4963892;28;20265;-65
2022/01/14 05:24:50;;;;;;;192.30;151.88;;;;;;;14.26;29.38;95208.78;4966482;28;20570;-66
2022/01/14 05:27:16;;;;;;;192.65;152.63;;;;;;;14.25;28.92;95199.19;4964846;28;20582;-65
2022/01/14 05:29:42;;;;;;;193.48;151.95;;;;;;;14.27;29.22;95208.38;4962531;28;20491;-65
2022/01/14 05:32:12;;;;;;;196.05;156.30;;;;;;;14.29;29.08;95206.06;4958848;28;20373;-64
2022/01/14 05:34:39;;;;;;;190.63;150.80;;;;;;;14.29;29.17;95203.38;4967180;28;20125;-64
2022/01/14 05:37:04;;;;;;;198.95;156.98;;;;;;;14.30;29.01;95207.56;4968703;28;20482;-66
2022/01/14 05:39:31;;;;;;;194.80;154.93;;;;;;;14.31;28.85;95197.56;4965280;28;20058;-65
2022/01/14 05:41:58;;;;;;;191.88;152.32;;;;;;;14.33;28.97;95208.69;4963928;28;20065;-66
2022/01/14 05:44:24;;;;;;;189.35;149.70;;;;;;;14.34;28.86;95202.13;4963991;28;20053;-66
2022/01/14 05:46:50;;;;;;;190.48;152.43;;;;;;;14.35;29.12;95209.03;4966366;28;20050;-66
2022/01/14 05:49:16;;;;;;;196.98;154.75;;;;;;;14.35;28.90;95200.97;4962709;28;20046;-66
2022/01/14 05:51:41;;;;;;;196.75;156.13;;;;;;;14.36;29.04;95205.97;4963438;28;20176;-66
2022/01/14 05:54:07;;;;;;;190.32;151.27;;;;;;;14.37;28.95;95218.25;4966941;28;20184;-66
2022/01/14 05:56:32;;;;;;;191.18;152.50;;;;;;;14.38;28.89;95216.31;4965922;28;20418;-66
2022/01/14 05:58:58;;;;;;;195.38;155.10;;;;;;;14.39;28.97;95226.69;4965540;28;20503;-66
2022/01/14 06:01:23;;;;;;;189.18;150.25;;;;;;;14.41;28.97;95221.69;4962820;28;20113;-66
2022/01/14 06:03:49;;;;;;;193.27;154.90;;;;;;;14.40;28.78;95222.84;4964542;28;20043;-66
2022/01/14 06:06:14;;;;;;;190.45;152.20;;;;;;;14.42;28.89;95223.22;4963851;28;20090;-66
2022/01/14 06:08:40;;;;;;;197.23;157.30;;;;;;;14.41;29.10;95224.38;4964737;28;20125;-66
2022/01/14 06:11:05;;;;;;;186.52;150.05;;;;;;;14.44;28.90;95228.22;4963149;28;20669;-66
2022/01/14 06:13:31;;;;;;;197.95;158.00;;;;;;;14.45;28.93;95227.03;4963756;28;20487;-66
2022/01/14 06:15:57;;;;;;;186.38;147.70;;;;;;;14.45;28.74;95218.97;4963263;28;20058;-66
2022/01/14 06:18:22;;;;;;;195.00;156.20;;;;;;;14.46;28.93;95221.25;4963868;28;20507;-66
2022/01/14 06:20:48;;;;;;;194.48;155.02;;;;;;;14.46;29.00;95223.19;4965739;28;20495;-66
2022/01/14 06:23:13;;;;;;;193.02;152.55;;;;;;;14.46;28.72;95212.41;4963497;28;20043;-66
2022/01/14 06:25:39;;;;;;;187.23;149.05;;;;;;;14.47;28.70;95216.63;4963277;28;20054;-66
2022/01/14 06:28:04;;;;;;;198.23;156.88;;;;;;;14.48;28.93;95212.78;4969493;28;20058;-66
2022/01/14 06:30:30;;;;;;;194.30;155.43;;;;;;;14.48;28.89;95215.47;4970264;28;20081;-66
2022/01/14 06:32:56;;;;;;;186.63;147.90;;;;;;;14.49;28.71;95222.38;4968633;28;20042;-66
2022/01/14 06:35:22;;;;;;;203.40;163.02;;;;;;;14.49;28.88;95217.78;4974719;28;20043;-66
2022/01/14 06:37:49;;;;;;;191.32;153.93;;;;;;;14.49;28.76;95222.38;4968224;28;20051;-66
2022/01/14 06:40:14;;;;;;;192.70;153.65;;;;;;;14.49;28.71;95220.47;4968494;28;20132;-66
2022/01/14 06:42:39;;;;;;;190.82;153.65;;;;;;;14.48;28.75;95221.63;4969968;28;20610;-66
2022/01/14 06:45:06;;;;;;;193.30;152.77;;;;;;;14.49;28.66;95217.00;4970162;28;20071;-66
2022/01/14 06:47:32;;;;;;;187.50;149.68;;;;;;;14.50;28.84;95226.59;4971300;28;20531;-66
2022/01/14 06:49:58;;;;;;;185.57;149.70;;;;;;;14.49;28.75;95225.06;4970033;28;20870;-66
2022/01/14 06:52:25;;;;;;;196.15;156.60;;;;;;;14.50;28.65;95227.38;4967452;28;20073;-66
2022/01/14 06:54:50;;;;;;;190.50;151.98;;;;;;;14.49;28.74;95223.16;4968813;28;20050;-66
2022/01/14 06:57:16;;;;;;;194.02;157.20;;;;;;;14.49;28.83;95230.47;4966674;28;20039;-66
2022/01/14 06:59:42;;;;;;;190.23;153.20;;;;;;;14.50;28.84;95229.31;4968606;28;20050;-66
2022/01/14 07:02:09;;;;;;;192.48;153.65;;;;;;;14.52;28.75;95234.28;4970189;28;20058;-66
2022/01/14 07:04:35;;;;;;;195.75;156.95;;;;;;;14.50;28.61;95232.75;4969995;28;20050;-66
2022/01/14 07:07:00;;;;;;;190.77;153.18;;;;;;;14.49;28.84;95228.53;4968247;28;20081;-66
2022/01/14 07:09:26;;;;;;;192.60;156.00;;;;;;;14.49;28.68;95233.91;4968972;28;20556;-66
2022/01/14 07:11:56;;;;;;;190.02;151.73;;;;;;;14.49;28.98;95239.31;4968278;28;20489;-66
2022/01/14 07:14:22;;;;;;;193.38;154.80;;;;;;;14.50;28.71;95240.81;4967514;28;20069;-66
2022/01/14 07:16:48;;;;;;;193.25;155.25;;;;;;;14.49;28.75;95238.53;4970916;28;20129;-66
2022/01/14 07:19:15;;;;;;;190.93;153.68;;;;;;;14.49;28.95;95236.59;4968400;28;20187;-66
2022/01/14 07:21:41;;;;;;;189.57;152.73;;;;;;;14.50;28.80;95240.06;4968285;28;20128;-66
2022/01/14 07:24:06;;;;;;;193.40;153.27;;;;;;;14.49;28.71;95247.38;4967704;28;20042;-66
2022/01/14 07:26:32;;;;;;;189.77;152.07;;;;;;;14.49;28.80;95243.91;4967991;28;20419;-66
2022/01/14 07:28:59;;;;;;;194.48;155.60;;;;;;;14.48;28.87;95237.00;4964616;28;20608;-66
2022/01/14 07:31:24;;;;;;;189.48;153.55;;;;;;;14.48;28.76;95240.47;4968211;28;20066;-66
2022/01/14 07:33:50;;;;;;;189.88;153.30;;;;;;;14.49;28.72;95241.22;4967337;28;20205;-66
2022/01/14 07:36:15;;;;;;;191.45;153.55;;;;;;;14.49;28.93;95246.63;4967281;28;20145;-66
2022/01/14 07:38:41;;;;;;;190.25;153.35;;;;;;;14.49;28.95;95254.69;4967650;28;20046;-66
2022/01/14 07:41:07;;;;;;;194.50;155.52;;;;;;;14.49;28.79;95262.75;4967552;28;20153;-66
2022/01/14 07:43:35;;;;;;;191.73;154.10;;;;;;;14.50;28.86;95264.28;4964205;28;20593;-66
2022/01/14 07:46:00;;;;;;;193.77;153.98;;;;;;;14.48;28.67;95267.38;4963014;28;21369;-66
2022/01/14 07:48:26;;;;;;;197.85;159.52;;;;;;;14.49;28.72;95268.16;4963636;28;20069;-66
2022/01/14 07:50:52;;;;;;;190.40;152.25;;;;;;;14.47;28.99;95273.94;4968576;28;20422;-66
2022/01/14 07:53:17;;;;;;;197.20;156.75;;;;;;;14.45;28.90;95270.09;4967288;28;20046;-66
2022/01/14 07:55:43;;;;;;;191.75;153.48;;;;;;;14.45;28.86;95270.09;4967548;28;20130;-66
2022/01/14 07:58:09;;;;;;;194.02;153.15;;;;;;;14.47;28.83;95267.78;4968360;28;20361;-66
2022/01/14 08:00:35;;;;;;;192.35;154.82;;;;;;;14.48;28.76;95264.69;4965795;28;20105;-66
2022/01/14 08:03:02;;;;;;;192.93;153.27;;;;;;;14.45;28.62;95262.03;4967216;28;20416;-66
2022/01/14 08:05:28;;;;;;;205.48;164.95;;;;;;;14.49;29.00;95270.84;4967281;28;20046;-66
2022/01/14 08:07:56;;;;;;;197.90;157.27;;;;;;;14.50;28.71;95266.97;4967470;28;20054;-66
2022/01/14 08:10:22;;;;;;;193.10;155.30;;;;;;;14.50;28.74;95275.06;4966687;28;20082;-66
2022/01/14 08:12:48;;;;;;;199.10;158.40;;;;;;;14.48;28.81;95267.38;4968942;28;20422;-66
2022/01/14 08:15:14;;;;;;;195.57;154.82;;;;;;;14.50;28.99;95273.13;4966284;28;20058;-66
2022/01/14 08:17:40;;;;;;;191.52;154.40;;;;;;;14.50;28.91;95267.75;4965974;28;20129;-66
2022/01/14 08:20:07;;;;;;;191.13;153.40;;;;;;;14.53;29.04;95268.09;4964581;28;20046;-67
2022/01/14 08:22:34;;;;;;;193.48;153.23;;;;;;;14.53;28.88;95273.50;4967483;28;20041;-67
2022/01/14 08:25:00;;;;;;;186.95;149.75;;;;;;;14.53;28.87;95273.50;4969769;28;20401;-67
2022/01/14 08:27:26;;;;;;;190.80;152.02;;;;;;;14.53;28.81;95271.56;4967596;28;21852;-68
2022/01/14 08:29:52;;;;;;;200.48;156.82;;;;;;;14.54;29.07;95266.94;4966746;28;20062;-69
2022/01/14 08:32:18;;;;;;;195.55;156.30;;;;;;;14.54;29.00;95266.94;4967486;28;20434;-67
2022/01/14 08:34:44;;;;;;;194.07;156.57;;;;;;;14.54;28.94;95264.25;4967768;28;20109;-67
2022/01/14 08:37:09;;;;;;;194.95;157.10;;;;;;;14.55;28.84;95257.72;4971284;28;20099;-68
2022/01/14 08:39:35;;;;;;;189.18;151.85;;;;;;;14.55;29.07;95255.78;4970378;28;20400;-67
2022/01/14 08:42:02;;;;;;;193.32;154.30;;;;;;;14.56;28.90;95260.00;4970483;28;20407;-66
2022/01/14 08:44:28;;;;;;;192.55;154.93;;;;;;;14.56;29.08;95256.53;4967013;28;20141;-67
2022/01/14 08:46:55;;;;;;;201.48;161.63;;;;;;;14.56;28.93;95256.53;4965741;28;20133;-66
2022/01/14 08:49:21;;;;;;;193.55;156.90;;;;;;;14.56;29.23;95248.47;4960498;28;20507;-65
2022/01/14 08:51:49;;;;;;;189.73;153.07;;;;;;;14.58;29.02;95248.84;4967310;28;20046;-64
2022/01/14 08:54:16;;;;;;;199.38;160.52;;;;;;;14.57;29.08;95253.44;4968870;28;21426;-66
2022/01/14 08:56:42;;;;;;;193.43;155.70;;;;;;;14.58;29.03;95254.97;4964261;28;20039;-66
2022/01/14 08:59:08;;;;;;;190.00;153.50;;;;;;;14.58;29.30;95254.97;4959297;28;20434;-66
2022/01/14 09:01:34;;;;;;;198.18;157.73;;;;;;;14.60;29.24;95251.88;4963893;28;20050;-65
2022/01/14 09:04:01;;;;;;;191.35;152.73;;;;;;;14.59;28.99;95253.06;4966413;28;20134;-66
2022/01/14 09:06:27;;;;;;;194.23;156.05;;;;;;;14.58;29.26;95252.28;4964612;28;20440;-66
2022/01/14 09:08:53;;;;;;;193.90;156.68;;;;;;;14.58;29.31;95249.59;4967789;28;20321;-66
2022/01/14 09:11:18;;;;;;;193.63;156.05;;;;;;;14.59;29.31;95251.13;4966613;28;20629;-66
2022/01/14 09:13:44;;;;;;;199.30;158.57;;;;;;;14.59;29.23;95253.06;4964093;28;20059;-65
2022/01/14 09:16:10;;;;;;;194.90;155.48;;;;;;;14.56;29.30;95251.16;4966848;28;20482;-65
2022/01/14 09:18:35;;;;;;;195.88;155.85;;;;;;;14.59;29.15;95247.66;4964597;28;20045;-66
2022/01/14 09:21:01;;;;;;;183.63;146.02;;;;;;;14.58;29.19;95249.59;4967784;28;20046;-66
2022/01/14 09:23:28;;;;;;;199.77;158.85;;;;;;;14.57;29.30;95250.75;4969891;28;20055;-65
2022/01/14 09:25:54;;;;;;;194.20;155.45;;;;;;;14.59;29.38;95250.34;4962672;28;20046;-64
2022/01/14 09:28:20;;;;;;;200.77;160.93;;;;;;;14.60;29.04;95249.19;4966863;28;20053;-65
2022/01/14 09:30:46;;;;;;;197.63;158.23;;;;;;;14.60;29.27;95251.88;4968503;28;20054;-65
2022/01/14 09:33:12;;;;;;;194.27;157.18;;;;;;;14.60;29.41;95249.19;4967674;28;20049;-65
2022/01/14 09:35:57;;;;;;;191.30;153.52;;;;;;;14.59;29.42;95248.44;4966935;28;20732;-65
2022/01/14 09:38:23;;;;;;;191.80;151.82;;;;;;;14.59;29.45;95243.03;4966368;28;20058;-66
2022/01/14 09:40:50;;;;;;;195.95;156.48;;;;;;;14.60;29.42;95241.88;4965799;28;20414;-66
2022/01/14 09:43:17;;;;;;;197.95;157.15;;;;;;;14.60;29.45;95243.81;4965716;28;20046;-66
2022/01/14 09:45:42;;;;;;;206.45;163.25;;;;;;;14.60;29.23;95252.66;4959568;28;20050;-66
2022/01/14 09:48:08;;;;;;;209.07;167.00;;;;;;;14.62;29.23;95253.00;4956667;28;20065;-66
2022/01/14 09:50:34;;;;;;;196.00;156.25;;;;;;;14.62;29.29;95253.00;4957201;28;20093;-66
2022/01/14 09:52:59;;;;;;;197.05;158.15;;;;;;;14.62;29.17;95258.41;4963635;28;20065;-66
2022/01/14 09:55:25;;;;;;;208.90;165.52;;;;;;;14.63;29.30;95253.78;4963881;28;20046;-67
2022/01/14 09:57:54;;;;;;;202.50;161.68;;;;;;;14.62;29.27;95253.00;4963336;28;20447;-66
2022/01/14 10:00:20;;;;;;;206.30;166.48;;;;;;;14.63;29.43;95259.16;4963215;28;21876;-66
2022/01/14 10:02:47;;;;;;;197.50;158.43;;;;;;;14.62;29.41;95249.56;4965542;28;20050;-67
2022/01/14 10:05:31;;;;;;;194.73;154.70;;;;;;;14.63;29.48;95256.47;4965318;28;20101;-66
2022/01/14 10:08:08;;;;;;;192.48;151.93;;;;;;;14.62;29.46;95252.25;4964796;28;20060;-67
2022/01/14 10:10:37;;;;;;;196.60;158.57;;;;;;;14.63;29.41;95259.16;4962317;28;20141;-67
2022/01/14 10:13:21;;;;;;;191.43;152.53;;;;;;;14.62;29.57;95258.41;4973295;28;20544;-67
2022/01/14 10:15:49;;;;;;;192.40;153.23;;;;;;;14.63;29.46;95256.47;4967338;28;20041;-67
2022/01/14 10:18:17;;;;;;;191.40;153.55;;;;;;;14.63;29.42;95251.84;4965735;28;20384;-67
2022/01/14 10:20:42;;;;;;;191.85;153.70;;;;;;;14.63;29.61;95248.41;4966601;28;20061;-67
2022/01/14 10:23:08;;;;;;;193.48;156.13;;;;;;;14.63;29.49;95251.84;4969720;28;20050;-67
2022/01/14 10:25:34;;;;;;;196.40;156.80;;;;;;;14.62;29.44;95239.56;4980220;28;20105;-67
2022/01/14 10:27:59;;;;;;;191.38;153.95;;;;;;;14.62;29.69;95236.84;4967804;28;20054;-67
2022/01/14 10:30:28;;;;;;;196.68;156.70;;;;;;;14.63;29.47;95235.69;4964563;28;20047;-67
2022/01/14 10:32:55;;;;;;;194.82;156.85;;;;;;;14.63;29.64;95234.94;4964360;28;20057;-67
2022/01/14 10:35:22;;;;;;;199.50;159.95;;;;;;;14.64;29.48;95225.69;4965092;28;20770;-67
2022/01/14 10:37:48;;;;;;;191.13;152.48;;;;;;;14.64;29.60;95234.53;4966112;28;20049;-67
2022/01/14 10:40:21;;;;;;;189.88;152.20;;;;;;;14.63;29.57;95219.53;4964611;28;20051;-67
2022/01/14 10:42:50;;;;;;;192.07;151.63;;;;;;;14.64;29.66;95228.38;4960923;28;20047;-67
2022/01/14 10:45:22;;;;;;;210.40;167.15;;;;;;;14.63;29.60;95224.94;4965326;28;20410;-67
2022/01/14 10:47:58;;;;;;;197.93;158.70;;;;;;;14.64;29.55;95233.75;4964259;28;20050;-67
2022/01/14 10:50:30;;;;;;;188.70;150.50;;;;;;;14.64;29.61;95220.31;4964501;28;20047;-67
2022/01/14 10:52:56;;;;;;;190.15;152.00;;;;;;;14.65;29.61;95224.53;4964333;28;20395;-67
2022/01/14 10:55:31;;;;;;;201.35;161.63;;;;;;;14.65;29.81;95216.44;4963598;28;20050;-67
2022/01/14 10:57:58;;;;;;;189.93;151.65;;;;;;;14.64;30.01;95207.59;4964405;28;20498;-67
2022/01/14 11:00:24;;;;;;;190.98;154.10;;;;;;;14.65;29.54;95216.44;4966352;28;20427;-67
2022/01/14 11:02:50;;;;;;;193.38;155.52;;;;;;;14.66;29.73;95215.28;4965964;28;20081;-67
2022/01/14 11:05:22;;;;;;;198.85;159.20;;;;;;;14.65;29.74;95211.81;4962577;28;20063;-67
2022/01/14 11:07:49;;;;;;;193.45;156.35;;;;;;;14.65;29.61;95208.38;4963374;28;20054;-67
2022/01/14 11:10:19;;;;;;;198.52;159.25;;;;;;;14.64;29.68;95212.22;4962375;28;20043;-69
2022/01/14 11:12:45;;;;;;;185.32;147.32;;;;;;;14.64;29.96;95210.31;4964128;28;20054;-67
2022/01/14 11:15:12;;;;;;;205.15;163.90;;;;;;;14.64;29.83;95207.59;4968109;28;20096;-67
2022/01/14 11:17:39;;;;;;;199.00;159.82;;;;;;;14.61;29.83;95210.34;4967792;28;20043;-67
2022/01/14 11:20:07;;;;;;;197.20;159.13;;;;;;;14.58;29.80;95208.44;4967172;28;20054;-67
2022/01/14 11:25:18;;;;;;;203.00;161.82;;;;;;;14.43;29.97;95197.06;4964986;28;20055;-67
2022/01/14 11:27:51;;;;;;;196.43;154.77;;;;;;;14.34;30.08;95192.13;4967212;28;20053;-69
2022/01/14 11:30:17;;;;;;;197.80;157.07;;;;;;;14.30;30.22;95188.72;4967935;28;20521;-67
2022/01/14 11:32:53;;;;;;;188.73;150.60;;;;;;;14.29;30.10;95189.16;4968887;28;20054;-68